Date: Tuesday, 25th September 2018
Valid from: 6:00 pm to 6:00 am
Synopsis:

Weak unstable conditions are affecting the islands

Forecast: Partly cloudy to cloudy with some scattered showers at first becoming fair to occasionally cloudy, hazy and breezy with a few brief showers
Weather Advisory/Warning: None
Winds: E to ENE at 20 to 40 kilometers per hour
Sea Conditions:  Moderate in open water; swells 1.5 m to 2.5m
Marine
Advisory/Warning:
None
Tides :25.09.2018
High: 6:50 am 7:41 pm  
Low: 12:38 am 2:24 pm

Aviation WX

[Source: ADDS]
METAR
TVSA 261100Z 06013KT 030V100 5000 -SHRA HZ BKN014 27/25 Q1011 TEMPO 3000 SHRA =
TVSA 260500Z 2606/2706 06013KT 9999 SCT020 PROB40 TEMPO 2618/2706 04016G28KT 4000 TSRA RA BKN014 SCT015CB
TAF
TVSA 260500Z 2606/2706 06013KT 9999 SCT020 PROB40 TEMPO 2618/2706 04016G28KT 4000 TSRA RA BKN014 SCT015CB =
SR / SS: 09:53 / 21:57 UTC (Sunrise Sunset 2018-09-26)